sensor_id;sensor_type;location;lat;lon;timestamp;pressure;altitude;pressure_sealevel;temperature;humidity
66742;BME280;53654;54.152;19.432;2023-04-06T00:02:08;102376.19;;;2.76;60.32
66742;BME280;53654;54.152;19.432;2023-04-06T00:04:36;102372.64;;;2.70;60.64
66742;BME280;53654;54.152;19.432;2023-04-06T00:07:04;102368.92;;;2.65;60.99
66742;BME280;53654;54.152;19.432;2023-04-06T00:09:33;102370.16;;;2.58;61.25
66742;BME280;53654;54.152;19.432;2023-04-06T00:12:01;102366.23;;;2.52;61.81
66742;BME280;53654;54.152;19.432;2023-04-06T00:14:29;102363.98;;;2.46;61.99
66742;BME280;53654;54.152;19.432;2023-04-06T00:16:57;102363.05;;;2.41;62.07
66742;BME280;53654;54.152;19.432;2023-04-06T00:19:25;102359.84;;;2.35;62.36
66742;BME280;53654;54.152;19.432;2023-04-06T00:21:53;102356.77;;;2.29;62.30
66742;BME280;53654;54.152;19.432;2023-04-06T00:24:22;102356.00;;;2.23;62.64
66742;BME280;53654;54.152;19.432;2023-04-06T00:26:50;102356.23;;;2.18;62.93
66742;BME280;53654;54.152;19.432;2023-04-06T00:29:17;102352.89;;;2.13;62.97
66742;BME280;53654;54.152;19.432;2023-04-06T00:31:45;102355.15;;;2.10;62.74
66742;BME280;53654;54.152;19.432;2023-04-06T00:34:14;102354.43;;;2.10;62.47
66742;BME280;53654;54.152;19.432;2023-04-06T00:36:43;102354.73;;;2.09;62.68
66742;BME280;53654;54.152;19.432;2023-04-06T00:39:11;102355.85;;;2.07;63.02
66742;BME280;53654;54.152;19.432;2023-04-06T00:41:45;102360.17;;;2.05;62.93
66742;BME280;53654;54.152;19.432;2023-04-06T00:44:16;102352.91;;;2.04;62.73
66742;BME280;53654;54.152;19.432;2023-04-06T00:46:45;102351.45;;;2.05;62.56
66742;BME280;53654;54.152;19.432;2023-04-06T00:49:13;102351.54;;;2.07;62.33
66742;BME280;53654;54.152;19.432;2023-04-06T00:51:41;102355.05;;;2.08;62.64
66742;BME280;53654;54.152;19.432;2023-04-06T00:54:09;102351.02;;;2.07;63.09
66742;BME280;53654;54.152;19.432;2023-04-06T00:56:38;102352.49;;;2.06;62.85
66742;BME280;53654;54.152;19.432;2023-04-06T00:59:06;102348.19;;;2.06;62.54
66742;BME280;53654;54.152;19.432;2023-04-06T01:01:35;102348.50;;;2.05;62.58
66742;BME280;53654;54.152;19.432;2023-04-06T01:04:08;102347.08;;;2.04;62.74
66742;BME280;53654;54.152;19.432;2023-04-06T01:06:39;102347.90;;;2.04;62.71
66742;BME280;53654;54.152;19.432;2023-04-06T01:09:08;102347.59;;;2.01;62.77
66742;BME280;53654;54.152;19.432;2023-04-06T01:11:37;102347.81;;;1.99;62.96
66742;BME280;53654;54.152;19.432;2023-04-06T01:14:06;102345.17;;;1.97;62.55
66742;BME280;53654;54.152;19.432;2023-04-06T01:16:44;102346.31;;;1.96;62.50
66742;BME280;53654;54.152;19.432;2023-04-06T01:19:16;102346.54;;;1.94;63.11
66742;BME280;53654;54.152;19.432;2023-04-06T01:21:47;102351.95;;;1.92;63.21
66742;BME280;53654;54.152;19.432;2023-04-06T01:24:23;102353.39;;;1.90;63.10
66742;BME280;53654;54.152;19.432;2023-04-06T01:27:20;102355.73;;;1.85;62.77
66742;BME280;53654;54.152;19.432;2023-04-06T01:29:52;102353.45;;;1.84;63.22
66742;BME280;53654;54.152;19.432;2023-04-06T01:32:32;102351.64;;;1.83;63.34
66742;BME280;53654;54.152;19.432;2023-04-06T01:35:00;102349.64;;;1.81;63.74
66742;BME280;53654;54.152;19.432;2023-04-06T01:37:30;102350.69;;;1.78;63.72
66742;BME280;53654;54.152;19.432;2023-04-06T01:40:00;102344.59;;;1.73;63.68
66742;BME280;53654;54.152;19.432;2023-04-06T01:42:39;102347.23;;;1.68;64.05
66742;BME280;53654;54.152;19.432;2023-04-06T01:45:09;102345.48;;;1.64;64.30
66742;BME280;53654;54.152;19.432;2023-04-06T01:47:37;102344.89;;;1.59;64.71
66742;BME280;53654;54.152;19.432;2023-04-06T01:50:06;102344.63;;;1.54;64.74
66742;BME280;53654;54.152;19.432;2023-04-06T01:52:38;102351.39;;;1.49;64.86
66742;BME280;53654;54.152;19.432;2023-04-06T01:55:07;102351.30;;;1.44;65.35
66742;BME280;53654;54.152;19.432;2023-04-06T01:58:07;102349.55;;;1.34;65.26
66742;BME280;53654;54.152;19.432;2023-04-06T02:00:39;102347.29;;;1.30;65.43
66742;BME280;53654;54.152;19.432;2023-04-06T02:03:08;102345.39;;;1.27;65.53
66742;BME280;53654;54.152;19.432;2023-04-06T02:05:36;102346.41;;;1.24;65.69
66742;BME280;53654;54.152;19.432;2023-04-06T02:08:15;102343.73;;;1.19;65.87
66742;BME280;53654;54.152;19.432;2023-04-06T02:10:43;102347.86;;;1.16;66.07
66742;BME280;53654;54.152;19.432;2023-04-06T02:13:18;102349.70;;;1.12;66.12
66742;BME280;53654;54.152;19.432;2023-04-06T02:15:49;102346.73;;;1.08;66.33
66742;BME280;53654;54.152;19.432;2023-04-06T02:18:17;102346.94;;;1.06;66.24
66742;BME280;53654;54.152;19.432;2023-04-06T02:20:46;102350.27;;;1.04;66.51
66742;BME280;53654;54.152;19.432;2023-04-06T02:23:14;102345.77;;;1.00;66.54
66742;BME280;53654;54.152;19.432;2023-04-06T02:25:42;102346.79;;;0.96;66.68
66742;BME280;53654;54.152;19.432;2023-04-06T02:28:10;102350.80;;;0.94;66.77
66742;BME280;53654;54.152;19.432;2023-04-06T02:30:38;102348.96;;;0.92;66.92
66742;BME280;53654;54.152;19.432;2023-04-06T02:33:07;102353.55;;;0.91;67.10
66742;BME280;53654;54.152;19.432;2023-04-06T02:35:41;102354.44;;;0.89;67.02
66742;BME280;53654;54.152;19.432;2023-04-06T02:38:09;102355.61;;;0.88;66.95
66742;BME280;53654;54.152;19.432;2023-04-06T02:40:37;102355.21;;;0.87;66.84
66742;BME280;53654;54.152;19.432;2023-04-06T02:43:20;102352.36;;;0.82;66.97
66742;BME280;53654;54.152;19.432;2023-04-06T02:45:50;102363.39;;;0.80;67.15
66742;BME280;53654;54.152;19.432;2023-04-06T02:48:19;102361.58;;;0.78;67.24
66742;BME280;53654;54.152;19.432;2023-04-06T02:50:47;102362.27;;;0.75;67.30
66742;BME280;53654;54.152;19.432;2023-04-06T02:53:15;102363.90;;;0.74;67.29
66742;BME280;53654;54.152;19.432;2023-04-06T02:55:43;102359.38;;;0.73;67.40
66742;BME280;53654;54.152;19.432;2023-04-06T02:58:11;102355.01;;;0.72;67.52
66742;BME280;53654;54.152;19.432;2023-04-06T03:00:45;102353.84;;;0.69;67.35
66742;BME280;53654;54.152;19.432;2023-04-06T03:03:13;102354.98;;;0.68;67.32
66742;BME280;53654;54.152;19.432;2023-04-06T03:05:42;102355.62;;;0.67;67.46
66742;BME280;53654;54.152;19.432;2023-04-06T03:08:10;102356.04;;;0.66;67.70
66742;BME280;53654;54.152;19.432;2023-04-06T03:10:42;102354.05;;;0.64;67.66
66742;BME280;53654;54.152;19.432;2023-04-06T03:13:10;102359.27;;;0.62;67.62
66742;BME280;53654;54.152;19.432;2023-04-06T03:15:45;102360.17;;;0.60;67.91
66742;BME280;53654;54.152;19.432;2023-04-06T03:18:20;102358.16;;;0.58;67.67
66742;BME280;53654;54.152;19.432;2023-04-06T03:20:50;102359.92;;;0.56;67.96
66742;BME280;53654;54.152;19.432;2023-04-06T03:23:19;102359.60;;;0.53;68.10
66742;BME280;53654;54.152;19.432;2023-04-06T03:25:52;102361.94;;;0.49;68.23
66742;BME280;53654;54.152;19.432;2023-04-06T03:28:20;102362.84;;;0.47;68.22
66742;BME280;53654;54.152;19.432;2023-04-06T03:31:00;102365.48;;;0.45;68.12
66742;BME280;53654;54.152;19.432;2023-04-06T03:33:41;102364.28;;;0.42;68.08
66742;BME280;53654;54.152;19.432;2023-04-06T03:36:13;102365.38;;;0.40;67.99
66742;BME280;53654;54.152;19.432;2023-04-06T03:38:42;102365.33;;;0.40;68.09
66742;BME280;53654;54.152;19.432;2023-04-06T03:41:12;102363.86;;;0.38;68.04
66742;BME280;53654;54.152;19.432;2023-04-06T03:43:44;102362.91;;;0.36;67.95
66742;BME280;53654;54.152;19.432;2023-04-06T03:46:12;102361.60;;;0.35;67.99
66742;BME280;53654;54.152;19.432;2023-04-06T03:48:40;102365.23;;;0.32;68.03
66742;BME280;53654;54.152;19.432;2023-04-06T03:51:08;102363.37;;;0.29;68.25
66742;BME280;53654;54.152;19.432;2023-04-06T03:53:36;102359.67;;;0.27;68.27
66742;BME280;53654;54.152;19.432;2023-04-06T03:56:05;102363.48;;;0.25;68.21
66742;BME280;53654;54.152;19.432;2023-04-06T03:58:33;102361.92;;;0.25;68.48
66742;BME280;53654;54.152;19.432;2023-04-06T04:01:01;102366.05;;;0.25;68.55
66742;BME280;53654;54.152;19.432;2023-04-06T04:03:29;102370.33;;;0.25;68.57
66742;BME280;53654;54.152;19.432;2023-04-06T04:05:57;102367.83;;;0.26;68.47
66742;BME280;53654;54.152;19.432;2023-04-06T04:08:25;102373.20;;;0.27;68.49
66742;BME280;53654;54.152;19.432;2023-04-06T04:10:53;102375.64;;;0.28;68.49
66742;BME280;53654;54.152;19.432;2023-04-06T04:13:22;102377.86;;;0.28;68.37
66742;BME280;53654;54.152;19.432;2023-04-06T04:15:51;102379.15;;;0.26;68.57
66742;BME280;53654;54.152;19.432;2023-04-06T04:18:20;102377.32;;;0.24;68.60
66742;BME280;53654;54.152;19.432;2023-04-06T04:20:48;102379.73;;;0.24;68.67
66742;BME280;53654;54.152;19.432;2023-04-06T04:23:19;102381.73;;;0.23;68.76
66742;BME280;53654;54.152;19.432;2023-04-06T04:25:48;102387.23;;;0.23;68.89
66742;BME280;53654;54.152;19.432;2023-04-06T04:28:16;102386.02;;;0.23;68.81
66742;BME280;53654;54.152;19.432;2023-04-06T04:30:44;102385.36;;;0.24;68.92
66742;BME280;53654;54.152;19.432;2023-04-06T04:33:12;102383.69;;;0.25;68.84
66742;BME280;53654;54.152;19.432;2023-04-06T04:35:41;102387.31;;;0.25;69.05
66742;BME280;53654;54.152;19.432;2023-04-06T04:38:10;102390.16;;;0.24;69.08
66742;BME280;53654;54.152;19.432;2023-04-06T04:40:40;102392.45;;;0.24;69.14
66742;BME280;53654;54.152;19.432;2023-04-06T04:43:09;102390.36;;;0.27;69.22
66742;BME280;53654;54.152;19.432;2023-04-06T04:45:37;102385.02;;;0.30;69.23
66742;BME280;53654;54.152;19.432;2023-04-06T04:48:13;102385.77;;;0.34;69.07
66742;BME280;53654;54.152;19.432;2023-04-06T04:50:51;102387.59;;;0.36;68.80
66742;BME280;53654;54.152;19.432;2023-04-06T04:53:20;102385.23;;;0.39;68.90
66742;BME280;53654;54.152;19.432;2023-04-06T04:55:51;102382.17;;;0.43;68.76
66742;BME280;53654;54.152;19.432;2023-04-06T04:58:20;102386.21;;;0.47;68.78
66742;BME280;53654;54.152;19.432;2023-04-06T05:00:51;102387.69;;;0.52;68.72
66742;BME280;53654;54.152;19.432;2023-04-06T05:03:24;102388.23;;;0.55;68.77
66742;BME280;53654;54.152;19.432;2023-04-06T05:05:59;102389.42;;;0.61;68.83
66742;BME280;53654;54.152;19.432;2023-04-06T05:08:30;102388.30;;;0.68;68.71
66742;BME280;53654;54.152;19.432;2023-04-06T05:10:59;102389.22;;;0.84;68.69
66742;BME280;53654;54.152;19.432;2023-04-06T05:13:29;102391.63;;;1.09;68.47
66742;BME280;53654;54.152;19.432;2023-04-06T05:15:58;102390.65;;;1.44;68.06
66742;BME280;53654;54.152;19.432;2023-04-06T05:18:29;102391.13;;;1.81;67.26
66742;BME280;53654;54.152;19.432;2023-04-06T05:20:57;102391.67;;;2.04;66.43
66742;BME280;53654;54.152;19.432;2023-04-06T05:23:36;102390.48;;;2.21;65.84
66742;BME280;53654;54.152;19.432;2023-04-06T05:26:04;102389.30;;;2.32;65.24
66742;BME280;53654;54.152;19.432;2023-04-06T05:28:32;102388.11;;;2.42;64.86
66742;BME280;53654;54.152;19.432;2023-04-06T05:31:01;102385.00;;;2.52;64.55
66742;BME280;53654;54.152;19.432;2023-04-06T05:33:33;102387.32;;;2.64;64.32
66742;BME280;53654;54.152;19.432;2023-04-06T05:36:05;102388.08;;;2.76;64.12
66742;BME280;53654;54.152;19.432;2023-04-06T05:38:37;102384.71;;;2.92;63.65
66742;BME280;53654;54.152;19.432;2023-04-06T05:41:13;102383.21;;;3.22;63.85
66742;BME280;53654;54.152;19.432;2023-04-06T05:43:41;102377.61;;;3.83;63.24
66742;BME280;53654;54.152;19.432;2023-04-06T05:46:10;102375.65;;;4.49;62.24
66742;BME280;53654;54.152;19.432;2023-04-06T05:48:38;102372.45;;;5.10;61.02
66742;BME280;53654;54.152;19.432;2023-04-06T05:51:06;102373.70;;;5.59;59.74
66742;BME280;53654;54.152;19.432;2023-04-06T05:53:43;102370.95;;;5.87;59.27
66742;BME280;53654;54.152;19.432;2023-04-06T05:56:11;102371.29;;;6.01;59.42
66742;BME280;53654;54.152;19.432;2023-04-06T05:58:39;102370.93;;;6.10;59.38
66742;BME280;53654;54.152;19.432;2023-04-06T06:01:08;102373.42;;;6.22;59.23
66742;BME280;53654;54.152;19.432;2023-04-06T06:03:41;102375.11;;;6.26;59.06
66742;BME280;53654;54.152;19.432;2023-04-06T06:06:09;102371.83;;;6.16;58.80
66742;BME280;53654;54.152;19.432;2023-04-06T06:08:46;102369.80;;;6.03;59.32
66742;BME280;53654;54.152;19.432;2023-04-06T06:11:15;102370.33;;;5.98;59.64
66742;BME280;53654;54.152;19.432;2023-04-06T06:13:44;102373.06;;;5.93;59.77
66742;BME280;53654;54.152;19.432;2023-04-06T06:16:12;102371.52;;;5.98;60.11
66742;BME280;53654;54.152;19.432;2023-04-06T06:18:44;102375.77;;;6.25;59.66
66742;BME280;53654;54.152;19.432;2023-04-06T06:21:13;102373.73;;;6.26;58.97
66742;BME280;53654;54.152;19.432;2023-04-06T06:23:42;102372.14;;;6.25;59.19
66742;BME280;53654;54.152;19.432;2023-04-06T06:26:12;102368.64;;;6.19;59.35
66742;BME280;53654;54.152;19.432;2023-04-06T06:28:40;102368.77;;;6.23;59.21
66742;BME280;53654;54.152;19.432;2023-04-06T06:31:09;102370.38;;;6.34;58.93
66742;BME280;53654;54.152;19.432;2023-04-06T06:33:38;102372.15;;;6.55;58.13
66742;BME280;53654;54.152;19.432;2023-04-06T06:36:06;102375.30;;;6.61;57.52
66742;BME280;53654;54.152;19.432;2023-04-06T06:38:34;102371.90;;;6.53;57.55
66742;BME280;53654;54.152;19.432;2023-04-06T06:41:03;102373.74;;;6.46;57.70
66742;BME280;53654;54.152;19.432;2023-04-06T06:43:32;102376.58;;;6.43;57.77
66742;BME280;53654;54.152;19.432;2023-04-06T06:46:07;102375.83;;;6.41;57.73
66742;BME280;53654;54.152;19.432;2023-04-06T06:48:35;102377.72;;;6.41;57.62
66742;BME280;53654;54.152;19.432;2023-04-06T06:51:04;102376.65;;;6.40;57.72
66742;BME280;53654;54.152;19.432;2023-04-06T06:53:32;102378.77;;;6.36;57.57
66742;BME280;53654;54.152;19.432;2023-04-06T06:56:00;102378.16;;;6.38;57.57
66742;BME280;53654;54.152;19.432;2023-04-06T06:58:29;102373.45;;;6.43;57.60
66742;BME280;53654;54.152;19.432;2023-04-06T07:00:58;102374.51;;;6.48;57.42
66742;BME280;53654;54.152;19.432;2023-04-06T07:03:27;102373.19;;;6.45;57.37
66742;BME280;53654;54.152;19.432;2023-04-06T07:05:55;102374.86;;;6.43;56.92
66742;BME280;53654;54.152;19.432;2023-04-06T07:08:24;102369.84;;;6.39;56.94
66742;BME280;53654;54.152;19.432;2023-04-06T07:10:53;102374.13;;;6.37;56.87
66742;BME280;53654;54.152;19.432;2023-04-06T07:13:23;102376.40;;;6.43;56.31
66742;BME280;53654;54.152;19.432;2023-04-06T07:15:54;102373.28;;;6.43;56.33
66742;BME280;53654;54.152;19.432;2023-04-06T07:18:23;102374.23;;;6.45;56.38
66742;BME280;53654;54.152;19.432;2023-04-06T07:20:51;102372.50;;;6.45;56.36
66742;BME280;53654;54.152;19.432;2023-04-06T07:23:19;102372.23;;;6.48;56.29
66742;BME280;53654;54.152;19.432;2023-04-06T07:25:47;102369.32;;;6.43;55.80
66742;BME280;53654;54.152;19.432;2023-04-06T07:28:18;102365.21;;;6.40;54.99
66742;BME280;53654;54.152;19.432;2023-04-06T07:30:47;102369.39;;;6.40;54.29
66742;BME280;53654;54.152;19.432;2023-04-06T07:33:15;102363.83;;;6.40;54.18
66742;BME280;53654;54.152;19.432;2023-04-06T07:35:43;102364.31;;;6.34;53.87
66742;BME280;53654;54.152;19.432;2023-04-06T07:38:11;102367.14;;;6.31;53.27
66742;BME280;53654;54.152;19.432;2023-04-06T07:40:40;102365.64;;;6.37;52.99
66742;BME280;53654;54.152;19.432;2023-04-06T07:43:08;102365.54;;;6.44;52.65
66742;BME280;53654;54.152;19.432;2023-04-06T07:45:36;102363.19;;;6.52;51.05
66742;BME280;53654;54.152;19.432;2023-04-06T07:48:04;102363.98;;;6.55;50.40
66742;BME280;53654;54.152;19.432;2023-04-06T07:50:33;102363.13;;;6.60;49.08
66742;BME280;53654;54.152;19.432;2023-04-06T07:53:01;102370.44;;;6.66;49.77
66742;BME280;53654;54.152;19.432;2023-04-06T07:55:30;102366.54;;;6.69;49.08
66742;BME280;53654;54.152;19.432;2023-04-06T07:57:58;102368.73;;;6.77;49.22
66742;BME280;53654;54.152;19.432;2023-04-06T08:00:26;102368.69;;;6.87;48.99
66742;BME280;53654;54.152;19.432;2023-04-06T08:02:54;102371.90;;;6.90;49.45
66742;BME280;53654;54.152;19.432;2023-04-06T08:05:22;102369.67;;;6.85;49.11
66742;BME280;53654;54.152;19.432;2023-04-06T08:07:50;102359.27;;;6.80;50.04
66742;BME280;53654;54.152;19.432;2023-04-06T08:10:18;102354.04;;;6.79;50.55
66742;BME280;53654;54.152;19.432;2023-04-06T08:12:46;102351.23;;;6.84;49.63
66742;BME280;53654;54.152;19.432;2023-04-06T08:15:14;102352.42;;;6.89;48.49
66742;BME280;53654;54.152;19.432;2023-04-06T08:17:43;102351.23;;;6.95;48.05
66742;BME280;53654;54.152;19.432;2023-04-06T08:20:11;102350.14;;;6.99;47.34
66742;BME280;53654;54.152;19.432;2023-04-06T08:22:39;102345.05;;;7.02;48.13
66742;BME280;53654;54.152;19.432;2023-04-06T08:25:07;102344.77;;;7.10;47.90
66742;BME280;53654;54.152;19.432;2023-04-06T08:27:37;102343.48;;;7.13;47.60
66742;BME280;53654;54.152;19.432;2023-04-06T08:30:06;102342.48;;;7.15;48.21
66742;BME280;53654;54.152;19.432;2023-04-06T08:32:34;102341.16;;;7.11;47.89
66742;BME280;53654;54.152;19.432;2023-04-06T08:35:02;102343.41;;;7.05;47.39
66742;BME280;53654;54.152;19.432;2023-04-06T08:37:31;102339.41;;;7.05;47.74
66742;BME280;53654;54.152;19.432;2023-04-06T08:39:59;102342.95;;;7.07;47.69
66742;BME280;53654;54.152;19.432;2023-04-06T08:42:28;102338.80;;;7.02;47.69
66742;BME280;53654;54.152;19.432;2023-04-06T08:44:59;102343.40;;;6.94;46.89
66742;BME280;53654;54.152;19.432;2023-04-06T08:47:28;102350.71;;;6.89;46.93
66742;BME280;53654;54.152;19.432;2023-04-06T08:49:58;102351.88;;;6.93;47.35
66742;BME280;53654;54.152;19.432;2023-04-06T08:52:27;102344.77;;;7.04;47.60
66742;BME280;53654;54.152;19.432;2023-04-06T08:54:56;102348.75;;;7.15;47.78
66742;BME280;53654;54.152;19.432;2023-04-06T08:57:24;102346.83;;;7.09;46.89
66742;BME280;53654;54.152;19.432;2023-04-06T08:59:54;102346.61;;;7.07;47.05
66742;BME280;53654;54.152;19.432;2023-04-06T09:02:23;102343.20;;;7.15;47.06
66742;BME280;53654;54.152;19.432;2023-04-06T09:04:53;102339.79;;;7.22;46.46
66742;BME280;53654;54.152;19.432;2023-04-06T09:07:22;102332.15;;;7.28;46.18
66742;BME280;53654;54.152;19.432;2023-04-06T09:09:51;102334.18;;;7.26;45.59
66742;BME280;53654;54.152;19.432;2023-04-06T09:12:27;102333.70;;;7.17;44.89
66742;BME280;53654;54.152;19.432;2023-04-06T09:14:56;102342.38;;;7.05;44.77
66742;BME280;53654;54.152;19.432;2023-04-06T09:17:30;102349.84;;;6.95;43.98
66742;BME280;53654;54.152;19.432;2023-04-06T09:20:02;102343.60;;;6.84;43.97
66742;BME280;53654;54.152;19.432;2023-04-06T09:22:38;102345.38;;;6.79;44.61
66742;BME280;53654;54.152;19.432;2023-04-06T09:25:09;102339.13;;;6.69;45.87
66742;BME280;53654;54.152;19.432;2023-04-06T09:27:38;102334.64;;;6.59;45.73
66742;BME280;53654;54.152;19.432;2023-04-06T09:30:10;102334.98;;;6.59;45.54
66742;BME280;53654;54.152;19.432;2023-04-06T09:32:48;102340.88;;;6.59;45.72
66742;BME280;53654;54.152;19.432;2023-04-06T09:35:18;102334.51;;;6.60;46.05
66742;BME280;53654;54.152;19.432;2023-04-06T09:37:49;102343.92;;;6.61;46.66
66742;BME280;53654;54.152;19.432;2023-04-06T09:40:18;102342.18;;;6.56;46.78
66742;BME280;53654;54.152;19.432;2023-04-06T09:42:48;102344.86;;;6.54;47.96
66742;BME280;53654;54.152;19.432;2023-04-06T09:45:18;102343.09;;;6.47;48.16
66742;BME280;53654;54.152;19.432;2023-04-06T09:47:46;102341.82;;;6.40;48.48
66742;BME280;53654;54.152;19.432;2023-04-06T09:50:14;102345.03;;;6.33;48.42
66742;BME280;53654;54.152;19.432;2023-04-06T09:52:49;102348.19;;;6.24;47.68
66742;BME280;53654;54.152;19.432;2023-04-06T09:55:42;102345.20;;;6.18;47.73
66742;BME280;53654;54.152;19.432;2023-04-06T09:58:13;102343.36;;;6.09;48.36
66742;BME280;53654;54.152;19.432;2023-04-06T10:01:05;102343.58;;;6.06;48.74
66742;BME280;53654;54.152;19.432;2023-04-06T10:06:13;102341.90;;;6.03;50.20
66742;BME280;53654;54.152;19.432;2023-04-06T10:08:45;102341.39;;;6.08;50.22
66742;BME280;53654;54.152;19.432;2023-04-06T10:11:14;102342.51;;;6.10;50.33
66742;BME280;53654;54.152;19.432;2023-04-06T10:13:45;102338.20;;;6.10;50.38
66742;BME280;53654;54.152;19.432;2023-04-06T10:16:17;102339.36;;;6.14;50.42
66742;BME280;53654;54.152;19.432;2023-04-06T10:18:52;102341.23;;;6.23;50.60
66742;BME280;53654;54.152;19.432;2023-04-06T10:21:25;102335.86;;;6.28;51.32
66742;BME280;53654;54.152;19.432;2023-04-06T10:24:00;102328.36;;;6.32;51.57
66742;BME280;53654;54.152;19.432;2023-04-06T10:26:29;102332.79;;;6.40;51.58
66742;BME280;53654;54.152;19.432;2023-04-06T10:29:02;102335.41;;;6.40;50.43
66742;BME280;53654;54.152;19.432;2023-04-06T10:31:31;102325.77;;;6.32;50.21
66742;BME280;53654;54.152;19.432;2023-04-06T10:34:01;102326.49;;;6.33;50.28
66742;BME280;53654;54.152;19.432;2023-04-06T10:36:34;102323.40;;;6.39;49.69
66742;BME280;53654;54.152;19.432;2023-04-06T10:39:04;102323.27;;;6.45;49.79
66742;BME280;53654;54.152;19.432;2023-04-06T10:41:43;102318.70;;;6.49;49.79
66742;BME280;53654;54.152;19.432;2023-04-06T10:44:24;102319.66;;;6.47;49.69
66742;BME280;53654;54.152;19.432;2023-04-06T10:46:56;102316.58;;;6.37;48.77
66742;BME280;53654;54.152;19.432;2023-04-06T10:49:25;102311.85;;;6.31;48.36
66742;BME280;53654;54.152;19.432;2023-04-06T10:51:55;102311.77;;;6.33;49.53
66742;BME280;53654;54.152;19.432;2023-04-06T10:54:25;102305.59;;;6.35;49.54
66742;BME280;53654;54.152;19.432;2023-04-06T10:56:53;102308.16;;;6.34;49.80
66742;BME280;53654;54.152;19.432;2023-04-06T10:59:21;102310.25;;;6.35;49.89
66742;BME280;53654;54.152;19.432;2023-04-06T11:01:50;102309.92;;;6.35;48.89
66742;BME280;53654;54.152;19.432;2023-04-06T11:04:20;102307.17;;;6.31;48.07
66742;BME280;53654;54.152;19.432;2023-04-06T11:06:50;102304.77;;;6.26;48.79
66742;BME280;53654;54.152;19.432;2023-04-06T11:09:29;102308.35;;;6.24;49.14
66742;BME280;53654;54.152;19.432;2023-04-06T11:11:59;102307.64;;;6.19;49.32
66742;BME280;53654;54.152;19.432;2023-04-06T11:14:28;102304.13;;;6.23;50.12
66742;BME280;53654;54.152;19.432;2023-04-06T11:16:56;102298.23;;;6.28;49.90
66742;BME280;53654;54.152;19.432;2023-04-06T11:19:25;102300.09;;;6.31;50.09
66742;BME280;53654;54.152;19.432;2023-04-06T11:21:53;102300.60;;;6.36;50.47
66742;BME280;53654;54.152;19.432;2023-04-06T11:24:23;102302.57;;;6.38;49.80
66742;BME280;53654;54.152;19.432;2023-04-06T11:26:52;102296.28;;;6.37;49.97
66742;BME280;53654;54.152;19.432;2023-04-06T11:29:25;102293.33;;;6.37;50.53
66742;BME280;53654;54.152;19.432;2023-04-06T11:31:59;102295.75;;;6.41;50.83
66742;BME280;53654;54.152;19.432;2023-04-06T11:34:29;102289.97;;;6.45;50.98
66742;BME280;53654;54.152;19.432;2023-04-06T11:36:59;102288.72;;;6.49;51.63
66742;BME280;53654;54.152;19.432;2023-04-06T11:39:29;102285.88;;;6.47;51.95
66742;BME280;53654;54.152;19.432;2023-04-06T11:41:59;102284.72;;;6.43;52.58
66742;BME280;53654;54.152;19.432;2023-04-06T11:44:29;102277.71;;;6.36;52.91
66742;BME280;53654;54.152;19.432;2023-04-06T11:46:58;102274.67;;;6.28;53.22
66742;BME280;53654;54.152;19.432;2023-04-06T11:49:30;102273.04;;;6.26;53.78
66742;BME280;53654;54.152;19.432;2023-04-06T11:51:59;102267.63;;;6.25;54.31
66742;BME280;53654;54.152;19.432;2023-04-06T11:54:37;102270.67;;;6.22;54.64
66742;BME280;53654;54.152;19.432;2023-04-06T11:57:08;102272.86;;;6.15;54.92
66742;BME280;53654;54.152;19.432;2023-04-06T11:59:36;102269.42;;;6.11;55.24
66742;BME280;53654;54.152;19.432;2023-04-06T12:02:04;102267.58;;;6.03;55.59
66742;BME280;53654;54.152;19.432;2023-04-06T12:04:33;102265.14;;;6.02;55.90
66742;BME280;53654;54.152;19.432;2023-04-06T12:07:02;102267.51;;;5.95;56.00
66742;BME280;53654;54.152;19.432;2023-04-06T12:09:31;102262.56;;;5.89;56.45
66742;BME280;53654;54.152;19.432;2023-04-06T12:11:59;102267.84;;;5.87;56.61
66742;BME280;53654;54.152;19.432;2023-04-06T12:14:28;102264.63;;;5.83;56.55
66742;BME280;53654;54.152;19.432;2023-04-06T12:16:58;102268.18;;;5.71;56.82
66742;BME280;53654;54.152;19.432;2023-04-06T12:19:26;102258.66;;;5.57;57.14
66742;BME280;53654;54.152;19.432;2023-04-06T12:21:56;102256.58;;;5.52;57.55
66742;BME280;53654;54.152;19.432;2023-04-06T12:24:25;102252.75;;;5.46;57.54
66742;BME280;53654;54.152;19.432;2023-04-06T12:26:53;102251.19;;;5.42;57.72
66742;BME280;53654;54.152;19.432;2023-04-06T12:29:37;102250.63;;;5.45;57.78
66742;BME280;53654;54.152;19.432;2023-04-06T12:32:05;102247.66;;;5.49;57.59
66742;BME280;53654;54.152;19.432;2023-04-06T12:34:34;102244.16;;;5.54;57.71
66742;BME280;53654;54.152;19.432;2023-04-06T12:37:02;102245.35;;;5.58;57.46
66742;BME280;53654;54.152;19.432;2023-04-06T12:39:30;102247.15;;;5.55;56.84
66742;BME280;53654;54.152;19.432;2023-04-06T12:41:59;102243.17;;;5.55;57.09
66742;BME280;53654;54.152;19.432;2023-04-06T12:44:27;102242.44;;;5.59;57.28
66742;BME280;53654;54.152;19.432;2023-04-06T12:46:55;102238.76;;;5.57;56.77
66742;BME280;53654;54.152;19.432;2023-04-06T12:49:24;102238.33;;;5.55;56.77
66742;BME280;53654;54.152;19.432;2023-04-06T12:51:52;102238.42;;;5.58;56.02
66742;BME280;53654;54.152;19.432;2023-04-06T12:54:20;102239.90;;;5.55;55.28
66742;BME280;53654;54.152;19.432;2023-04-06T12:56:48;102237.77;;;5.53;55.19
66742;BME280;53654;54.152;19.432;2023-04-06T12:59:16;102233.26;;;5.54;54.76
66742;BME280;53654;54.152;19.432;2023-04-06T13:01:44;102232.42;;;5.55;54.80
66742;BME280;53654;54.152;19.432;2023-04-06T13:04:12;102231.07;;;5.55;55.09
66742;BME280;53654;54.152;19.432;2023-04-06T13:06:40;102226.01;;;5.59;55.36
66742;BME280;53654;54.152;19.432;2023-04-06T13:09:08;102228.46;;;5.65;55.28